Time;durP1;ratioP1;P1;durP2;ratioP2;P2;SDS_P1;SDS_P2;PMS_P1;PMS_P2;Temp;Humidity;BMP_temperature;BMP_pressure;BME280_temperature;BME280_humidity;BME280_pressure;Samples;Min_cycle;Max_cycle;Signal;HPM_P1;HPM_P2
2023/09/11 00:01:59;;;;;;;;;;;;;;;;;;5074256;28;19970;-70
2023/09/11 00:04:26;;;;;;;;;;;;;;;;;;5073429;28;19978;-70
2023/09/11 00:06:53;;;;;;;;;;;;;;;;;;5074794;28;19928;-71
2023/09/11 00:09:20;;;;;;;;;;;;;;;;;;5073977;28;19986;-70
2023/09/11 00:11:47;;;;;;;;;;;;;;;;;;5075397;28;19925;-71
2023/09/11 00:14:14;;;;;;;;;;;;;;;;;;5075449;28;20365;-71
2023/09/11 00:16:41;;;;;;;;;;;;;;;;;;5075001;28;19924;-70
2023/09/11 00:19:09;;;;;;;;;;;;;;;;;;5072246;28;19925;-71
2023/09/11 00:21:36;;;;;;;;;;;;;;;;;;5075434;28;19924;-71
2023/09/11 00:24:03;;;;;;;;;;;;;;;;;;5070211;28;19983;-71
2023/09/11 00:26:30;;;;;;;;;;;;;;;;;;5073847;28;20410;-71
2023/09/11 00:28:57;;;;;;;;;;;;;;;;;;5075042;28;19978;-71
2023/09/11 00:31:24;;;;;;;;;;;;;;;;;;5070428;28;20005;-71
2023/09/11 00:33:51;;;;;;;;;;;;;;;;;;5069795;28;19928;-70
2023/09/11 00:36:18;;;;;;;;;;;;;;;;;;5074705;28;19925;-71
2023/09/11 00:38:47;;;;;;;;;;;;;;;;;;5073252;28;19958;-71
2023/09/11 00:41:14;;;;;;;;;;;;;;;;;;5072093;28;19986;-69
2023/09/11 00:43:41;;;;;;;;;;;;;;;;;;5070494;28;19925;-69
2023/09/11 00:46:08;;;;;;;;;;;;;;;;;;5070037;28;19943;-69
2023/09/11 00:48:35;;;;;;;;;;;;;;;;;;5070735;28;20021;-70
2023/09/11 00:51:02;;;;;;;;;;;;;;;;;;5083066;28;20316;-69
2023/09/11 00:53:29;;;;;;;;;;;;;;;;;;5073631;28;19924;-69
2023/09/11 00:55:56;;;;;;;;;;;;;;;;;;5074407;28;19924;-70
2023/09/11 00:58:23;;;;;;;;;;;;;;;;;;5071833;28;20033;-69
2023/09/11 01:00:50;;;;;;;;;;;;;;;;;;5067528;28;19975;-69
2023/09/11 01:03:17;;;;;;;;;;;;;;;;;;5065662;28;20387;-70
2023/09/11 01:05:44;;;;;;;;;;;;;;;;;;5054601;28;19971;-70
2023/09/11 01:08:11;;;;;;;;;;;;;;;;;;5072404;28;19978;-70
2023/09/11 01:10:38;;;;;;;;;;;;;;;;;;5068263;28;19985;-70
2023/09/11 01:13:05;;;;;;;;;;;;;;;;;;5074139;28;19924;-70
2023/09/11 01:15:32;;;;;;;;;;;;;;;;;;5071889;28;19990;-70
2023/09/11 01:17:59;;;;;;;;;;;;;;;;;;5073495;28;19970;-70
2023/09/11 01:20:26;;;;;;;;;;;;;;;;;;5066363;28;19960;-70
2023/09/11 01:22:53;;;;;;;;;;;;;;;;;;5064703;28;19924;-70
2023/09/11 01:25:20;;;;;;;;;;;;;;;;;;5071034;28;19967;-70
2023/09/11 01:27:47;;;;;;;;;;;;;;;;;;5054106;28;19933;-70
2023/09/11 01:30:14;;;;;;;;;;;;;;;;;;5062820;28;19968;-69
2023/09/11 01:32:41;;;;;;;;;;;;;;;;;;5067811;28;20054;-71
2023/09/11 01:35:08;;;;;;;;;;;;;;;;;;5058461;28;20046;-71
2023/09/11 01:37:35;;;;;;;;;;;;;;;;;;5064842;28;20038;-71
2023/09/11 01:40:03;;;;;;;;;;;;;;;;;;5057216;28;19976;-71
2023/09/11 01:42:30;;;;;;;;;;;;;;;;;;5054780;28;19932;-70
2023/09/11 01:44:57;;;;;;;;;;;;;;;;;;5071258;28;19950;-70
2023/09/11 01:47:23;;;;;;;;;;;;;;;;;;5064755;28;20353;-70
2023/09/11 01:49:50;;;;;;;;;;;;;;;;;;5071071;28;19951;-71
2023/09/11 01:52:18;;;;;;;;;;;;;;;;;;5062536;28;19925;-72
2023/09/11 01:54:45;;;;;;;;;;;;;;;;;;5066513;28;20020;-72
2023/09/11 01:57:12;;;;;;;;;;;;;;;;;;5069084;28;20418;-68
2023/09/11 01:59:39;;;;;;;;;;;;;;;;;;5070361;28;20075;-69
2023/09/11 02:02:07;;;;;;;;;;;;;;;;;;5072268;28;19925;-70
2023/09/11 02:04:34;;;;;;;;;;;;;;;;;;5072588;28;19951;-71
2023/09/11 02:07:01;;;;;;;;;;;;;;;;;;5073217;28;19951;-71
2023/09/11 02:09:28;;;;;;;;;;;;;;;;;;5073158;28;20316;-72
2023/09/11 02:11:55;;;;;;;;;;;;;;;;;;5070465;28;19924;-71
2023/09/11 02:14:22;;;;;;;;;;;;;;;;;;5071853;28;20375;-72
2023/09/11 02:16:49;;;;;;;;;;;;;;;;;;5073229;28;19928;-71
2023/09/11 02:19:16;;;;;;;;;;;;;;;;;;5072111;28;19925;-71
2023/09/11 02:21:43;;;;;;;;;;;;;;;;;;5070748;28;20440;-71
2023/09/11 02:24:10;;;;;;;;;;;;;;;;;;5072378;28;19925;-71
2023/09/11 02:26:37;;;;;;;;;;;;;;;;;;5071335;28;20521;-71
2023/09/11 02:29:04;;;;;;;;;;;;;;;;;;5072868;28;19932;-71
2023/09/11 02:31:31;;;;;;;;;;;;;;;;;;5071485;28;19924;-71
2023/09/11 02:33:58;;;;;;;;;;;;;;;;;;5072291;28;19925;-72
2023/09/11 02:36:25;;;;;;;;;;;;;;;;;;5072404;28;19931;-71
2023/09/11 02:38:52;;;;;;;;;;;;;;;;;;5073243;28;19959;-71
2023/09/11 02:41:19;;;;;;;;;;;;;;;;;;5071402;28;19970;-71
2023/09/11 02:43:46;;;;;;;;;;;;;;;;;;5072347;28;20261;-71
2023/09/11 02:46:13;;;;;;;;;;;;;;;;;;5071538;28;19994;-72
2023/09/11 02:48:40;;;;;;;;;;;;;;;;;;5072556;28;19929;-72
2023/09/11 02:51:07;;;;;;;;;;;;;;;;;;5070771;28;20333;-71
2023/09/11 02:53:34;;;;;;;;;;;;;;;;;;5072793;28;19932;-71
2023/09/11 02:56:01;;;;;;;;;;;;;;;;;;5072900;28;19970;-71
2023/09/11 02:58:28;;;;;;;;;;;;;;;;;;5071541;28;19964;-71
2023/09/11 03:00:55;;;;;;;;;;;;;;;;;;5071535;28;20459;-71
2023/09/11 03:03:22;;;;;;;;;;;;;;;;;;5072174;28;19924;-70
2023/09/11 03:05:49;;;;;;;;;;;;;;;;;;5068191;28;20330;-70
2023/09/11 03:08:16;;;;;;;;;;;;;;;;;;5071614;28;19926;-70
2023/09/11 03:10:43;;;;;;;;;;;;;;;;;;5072354;28;19989;-70
2023/09/11 03:13:10;;;;;;;;;;;;;;;;;;5072724;28;19924;-70
2023/09/11 03:15:37;;;;;;;;;;;;;;;;;;5069975;28;19970;-70
2023/09/11 03:18:04;;;;;;;;;;;;;;;;;;5071579;28;19924;-70
2023/09/11 03:20:31;;;;;;;;;;;;;;;;;;5070498;28;19924;-70
2023/09/11 03:22:59;;;;;;;;;;;;;;;;;;5071814;28;19932;-70
2023/09/11 03:25:26;;;;;;;;;;;;;;;;;;5071643;28;19924;-71
2023/09/11 03:27:53;;;;;;;;;;;;;;;;;;5071480;28;19970;-71
2023/09/11 03:30:20;;;;;;;;;;;;;;;;;;5067219;28;20449;-71
2023/09/11 03:32:47;;;;;;;;;;;;;;;;;;5070362;28;19968;-72
2023/09/11 03:35:14;;;;;;;;;;;;;;;;;;5070911;28;19998;-71
2023/09/11 03:37:41;;;;;;;;;;;;;;;;;;5071278;28;19924;-71
2023/09/11 03:40:09;;;;;;;;;;;;;;;;;;5072513;28;19985;-71
2023/09/11 03:42:36;;;;;;;;;;;;;;;;;;5072242;28;19985;-71
2023/09/11 03:45:03;;;;;;;;;;;;;;;;;;5071353;28;19928;-71
2023/09/11 03:47:30;;;;;;;;;;;;;;;;;;5072639;28;20447;-71
2023/09/11 03:49:57;;;;;;;;;;;;;;;;;;5071762;28;19971;-71
2023/09/11 03:52:24;;;;;;;;;;;;;;;;;;5071963;28;20434;-71
2023/09/11 03:54:51;;;;;;;;;;;;;;;;;;5073414;28;19928;-70
2023/09/11 03:57:18;;;;;;;;;;;;;;;;;;5072191;28;19925;-70
2023/09/11 03:59:45;;;;;;;;;;;;;;;;;;5070688;28;19928;-70
2023/09/11 04:02:12;;;;;;;;;;;;;;;;;;5068072;28;19924;-70
2023/09/11 04:04:39;;;;;;;;;;;;;;;;;;5067192;28;20562;-70
2023/09/11 04:07:06;;;;;;;;;;;;;;;;;;5070548;28;19929;-70
2023/09/11 04:09:33;;;;;;;;;;;;;;;;;;5071659;28;19970;-71
2023/09/11 04:12:00;;;;;;;;;;;;;;;;;;5071734;28;19931;-71
2023/09/11 04:14:27;;;;;;;;;;;;;;;;;;5070560;28;19986;-71
2023/09/11 04:16:54;;;;;;;;;;;;;;;;;;5072014;28;19953;-70
2023/09/11 04:19:21;;;;;;;;;;;;;;;;;;5069966;28;19928;-71
2023/09/11 04:21:48;;;;;;;;;;;;;;;;;;5069482;28;19928;-71
2023/09/11 04:24:15;;;;;;;;;;;;;;;;;;5070697;28;19932;-71
2023/09/11 04:26:44;;;;;;;;;;;;;;;;;;5071299;28;20001;-71
2023/09/11 04:29:11;;;;;;;;;;;;;;;;;;5068823;28;19924;-72
2023/09/11 04:31:38;;;;;;;;;;;;;;;;;;5061613;28;19924;-71
2023/09/11 04:34:05;;;;;;;;;;;;;;;;;;5070513;28;19994;-72
2023/09/11 04:36:32;;;;;;;;;;;;;;;;;;5069015;28;19931;-72
2023/09/11 04:38:59;;;;;;;;;;;;;;;;;;5070420;28;20001;-72
2023/09/11 04:41:26;;;;;;;;;;;;;;;;;;5072759;28;19924;-71
2023/09/11 04:43:54;;;;;;;;;;;;;;;;;;5069082;28;20337;-71
2023/09/11 04:46:21;;;;;;;;;;;;;;;;;;5074360;28;19968;-72
2023/09/11 04:48:48;;;;;;;;;;;;;;;;;;5074890;28;20019;-70
2023/09/11 04:51:15;;;;;;;;;;;;;;;;;;5074096;28;20029;-71
2023/09/11 04:53:42;;;;;;;;;;;;;;;;;;5074218;28;19928;-71
2023/09/11 04:56:09;;;;;;;;;;;;;;;;;;5072018;28;19976;-71
2023/09/11 04:58:36;;;;;;;;;;;;;;;;;;5072113;28;19925;-71
2023/09/11 05:01:03;;;;;;;;;;;;;;;;;;5074217;28;19971;-71
2023/09/11 05:03:30;;;;;;;;;;;;;;;;;;5070820;28;19924;-71
2023/09/11 05:05:57;;;;;;;;;;;;;;;;;;5072043;28;19925;-71
2023/09/11 05:08:24;;;;;;;;;;;;;;;;;;5074607;28;19978;-71
2023/09/11 05:10:51;;;;;;;;;;;;;;;;;;5074071;28;20452;-71
2023/09/11 05:13:18;;;;;;;;;;;;;;;;;;5074714;28;19924;-71
2023/09/11 05:15:48;;;;;;;;;;;;;;;;;;5073401;28;20441;-71
2023/09/11 05:18:15;;;;;;;;;;;;;;;;;;5072715;28;19964;-71
2023/09/11 05:20:42;;;;;;;;;;;;;;;;;;5073460;28;19987;-73
2023/09/11 05:23:09;;;;;;;;;;;;;;;;;;5074266;28;20001;-72
2023/09/11 05:25:37;;;;;;;;;;;;;;;;;;5073828;28;19940;-71
2023/09/11 05:28:04;;;;;;;;;;;;;;;;;;5074012;28;20015;-71
2023/09/11 05:30:31;;;;;;;;;;;;;;;;;;5072966;28;20383;-70
2023/09/11 05:32:58;;;;;;;;;;;;;;;;;;5070685;28;20014;-71
2023/09/11 05:35:25;;;;;;;;;;;;;;;;;;5072750;28;20414;-70
2023/09/11 05:37:52;;;;;;;;;;;;;;;;;;5072732;28;19928;-68
2023/09/11 05:40:19;;;;;;;;;;;;;;;;;;5073641;28;19924;-68
2023/09/11 05:42:46;;;;;;;;;;;;;;;;;;5072994;28;19928;-69
2023/09/11 05:45:13;;;;;;;;;;;;;;;;;;5073322;28;20026;-70
2023/09/11 05:47:40;;;;;;;;;;;;;;;;;;5072927;28;19924;-68
2023/09/11 05:50:07;;;;;;;;;;;;;;;;;;5071347;28;19946;-68
2023/09/11 05:52:35;;;;;;;;;;;;;;;;;;5062300;28;19971;-68
2023/09/11 05:55:02;;;;;;;;;;;;;;;;;;5068791;28;19975;-69
2023/09/11 05:57:29;;;;;;;;;;;;;;;;;;5060033;28;20395;-67
2023/09/11 05:59:56;;;;;;;;;;;;;;;;;;5058006;28;19979;-69
2023/09/11 06:02:23;;;;;;;;;;;;;;;;;;5063462;28;20292;-69
2023/09/11 06:04:50;;;;;;;;;;;;;;;;;;5063695;28;19940;-67
2023/09/11 06:07:18;;;;;;;;;;;;;;;;;;5062263;28;19963;-69
2023/09/11 06:09:45;;;;;;;;;;;;;;;;;;5069115;28;19924;-68
2023/09/11 06:12:12;;;;;;;;;;;;;;;;;;5068784;28;19929;-68
2023/09/11 06:14:39;;;;;;;;;;;;;;;;;;5053080;28;20284;-69
2023/09/11 06:17:06;;;;;;;;;;;;;;;;;;5065675;28;19979;-69
2023/09/11 06:19:33;;;;;;;;;;;;;;;;;;5067630;28;20387;-69
2023/09/11 06:22:00;;;;;;;;;;;;;;;;;;5068618;28;19928;-69
2023/09/11 06:24:27;;;;;;;;;;;;;;;;;;5068485;28;20450;-69
2023/09/11 06:26:54;;;;;;;;;;;;;;;;;;5072366;28;19925;-68
2023/09/11 06:29:21;;;;;;;;;;;;;;;;;;5065510;28;20010;-69
2023/09/11 06:31:48;;;;;;;;;;;;;;;;;;5064255;28;19978;-69
2023/09/11 06:34:15;;;;;;;;;;;;;;;;;;5065678;28;19924;-69
2023/09/11 06:36:42;;;;;;;;;;;;;;;;;;5069771;28;19924;-69
2023/09/11 06:39:09;;;;;;;;;;;;;;;;;;5069587;28;19924;-69
2023/09/11 06:41:36;;;;;;;;;;;;;;;;;;5069053;28;19966;-69
2023/09/11 06:44:04;;;;;;;;;;;;;;;;;;5070414;28;20445;-68
2023/09/11 06:46:30;;;;;;;;;;;;;;;;;;5071848;28;19924;-69
2023/09/11 06:48:58;;;;;;;;;;;;;;;;;;5067521;28;20337;-69
2023/09/11 06:51:25;;;;;;;;;;;;;;;;;;5070363;28;20273;-69
2023/09/11 06:53:53;;;;;;;;;;;;;;;;;;5071253;28;19935;-68
2023/09/11 06:56:20;;;;;;;;;;;;;;;;;;5071988;28;19936;-68
2023/09/11 06:58:47;;;;;;;;;;;;;;;;;;5070145;28;19924;-69
2023/09/11 07:01:14;;;;;;;;;;;;;;;;;;5069365;28;20065;-69
2023/09/11 07:03:41;;;;;;;;;;;;;;;;;;5068682;28;20375;-71
2023/09/11 07:06:08;;;;;;;;;;;;;;;;;;5067259;28;20039;-70
2023/09/11 07:08:35;;;;;;;;;;;;;;;;;;5069477;28;19970;-69
2023/09/11 07:11:02;;;;;;;;;;;;;;;;;;5070996;28;19978;-68
2023/09/11 07:13:29;;;;;;;;;;;;;;;;;;5066811;28;19970;-70
2023/09/11 07:15:56;;;;;;;;;;;;;;;;;;5069397;28;19989;-70
2023/09/11 07:18:23;;;;;;;;;;;;;;;;;;5069314;28;19925;-70
2023/09/11 07:20:50;;;;;;;;;;;;;;;;;;5069834;28;19924;-70
2023/09/11 07:23:17;;;;;;;;;;;;;;;;;;5069431;28;19978;-70
2023/09/11 07:25:44;;;;;;;;;;;;;;;;;;5069916;28;19924;-70
2023/09/11 07:28:11;;;;;;;;;;;;;;;;;;5068868;28;20033;-70
2023/09/11 07:30:38;;;;;;;;;;;;;;;;;;5061446;28;19928;-70
2023/09/11 07:33:05;;;;;;;;;;;;;;;;;;5057840;28;19924;-70
2023/09/11 07:35:33;;;;;;;;;;;;;;;;;;5062714;28;20299;-70
2023/09/11 07:38:00;;;;;;;;;;;;;;;;;;5062787;28;19958;-70
2023/09/11 07:40:27;;;;;;;;;;;;;;;;;;5069925;28;19928;-70
2023/09/11 07:42:54;;;;;;;;;;;;;;;;;;5068819;28;19932;-70
2023/09/11 07:45:21;;;;;;;;;;;;;;;;;;5070154;28;20292;-70
2023/09/11 07:47:48;;;;;;;;;;;;;;;;;;5069966;28;19924;-70
2023/09/11 07:50:15;;;;;;;;;;;;;;;;;;5071877;28;20376;-70
2023/09/11 07:52:42;;;;;;;;;;;;;;;;;;5064368;28;19979;-70
2023/09/11 07:55:09;;;;;;;;;;;;;;;;;;5065814;28;19924;-70
2023/09/11 07:57:39;;;;;;;;;;;;;;;;;;5069969;28;20284;-72
2023/09/11 08:00:07;;;;;;;;;;;;;;;;;;5071889;28;19954;-70
2023/09/11 08:02:37;;;;;;;;;;;;;;;;;;5071886;28;19925;-70
2023/09/11 08:05:06;;;;;;;;;;;;;;;;;;5069942;28;21628;-70
2023/09/11 08:07:33;;;;;;;;;;;;;;;;;;5071167;28;19928;-71
2023/09/11 08:10:01;;;;;;;;;;;;;;;;;;5069400;28;19971;-71
2023/09/11 08:12:28;;;;;;;;;;;;;;;;;;5070308;28;19924;-71
2023/09/11 08:14:55;;;;;;;;;;;;;;;;;;5070964;28;20445;-71
2023/09/11 08:17:22;;;;;;;;;;;;;;;;;;5074856;28;19970;-71
2023/09/11 08:19:49;;;;;;;;;;;;;;;;;;5075548;28;19925;-71
2023/09/11 08:22:16;;;;;;;;;;;;;;;;;;5075931;28;19930;-70
2023/09/11 08:24:43;;;;;;;;;;;;;;;;;;5075504;28;20367;-70
2023/09/11 08:27:10;;;;;;;;;;;;;;;;;;5073703;28;19928;-71
2023/09/11 08:29:37;;;;;;;;;;;;;;;;;;5072963;28;19925;-70
2023/09/11 08:32:04;;;;;;;;;;;;;;;;;;5074805;28;19947;-71
2023/09/11 08:34:31;;;;;;;;;;;;;;;;;;5074344;28;19986;-71
2023/09/11 08:36:59;;;;;;;;;;;;;;;;;;5074106;28;19978;-71
2023/09/11 08:39:26;;;;;;;;;;;;;;;;;;5070409;28;19931;-70
2023/09/11 08:41:53;;;;;;;;;;;;;;;;;;5065801;28;19925;-71
2023/09/11 08:44:20;;;;;;;;;;;;;;;;;;5067239;28;19924;-70
2023/09/11 08:46:47;;;;;;;;;;;;;;;;;;5074276;28;19975;-70
2023/09/11 08:49:14;;;;;;;;;;;;;;;;;;5074079;28;19924;-70
2023/09/11 08:51:41;;;;;;;;;;;;;;;;;;5074385;28;19924;-71
2023/09/11 08:54:09;;;;;;;;;;;;;;;;;;5073286;28;19978;-68
2023/09/11 08:56:36;;;;;;;;;;;;;;;;;;5073538;28;20375;-69
2023/09/11 08:59:03;;;;;;;;;;;;;;;;;;5073232;28;19929;-71
2023/09/11 09:01:30;;;;;;;;;;;;;;;;;;5073218;28;19924;-72
2023/09/11 09:03:57;;;;;;;;;;;;;;;;;;5069907;28;19924;-72
2023/09/11 09:06:24;;;;;;;;;;;;;;;;;;5073065;28;20383;-71
2023/09/11 09:08:51;;;;;;;;;;;;;;;;;;5069512;28;19936;-71
2023/09/11 09:11:18;;;;;;;;;;;;;;;;;;5067969;28;20612;-70
2023/09/11 09:13:45;;;;;;;;;;;;;;;;;;5067945;28;19924;-71
2023/09/11 09:16:12;;;;;;;;;;;;;;;;;;5072101;28;19990;-70
2023/09/11 09:18:39;;;;;;;;;;;;;;;;;;5072219;28;20364;-70
2023/09/11 09:21:07;;;;;;;;;;;;;;;;;;5072936;28;19929;-71
2023/09/11 09:23:35;;;;;;;;;;;;;;;;;;5073000;28;19960;-71
2023/09/11 09:26:02;;;;;;;;;;;;;;;;;;5062009;28;20010;-71
2023/09/11 09:28:29;;;;;;;;;;;;;;;;;;5070724;28;19926;-72
2023/09/11 09:30:56;;;;;;;;;;;;;;;;;;5072486;28;19931;-71
2023/09/11 09:33:24;;;;;;;;;;;;;;;;;;5069296;28;19924;-72
2023/09/11 09:35:51;;;;;;;;;;;;;;;;;;5073706;28;19924;-71
2023/09/11 09:38:18;;;;;;;;;;;;;;;;;;5061647;28;19928;-71
2023/09/11 09:40:49;;;;;;;;;;;;;;;;;;5069699;28;19925;-72
2023/09/11 09:43:16;;;;;;;;;;;;;;;;;;5070345;28;19924;-71
2023/09/11 09:45:43;;;;;;;;;;;;;;;;;;5070896;28;19971;-71
2023/09/11 09:48:10;;;;;;;;;;;;;;;;;;5073414;28;20014;-71
2023/09/11 09:50:37;;;;;;;;;;;;;;;;;;5062991;28;20380;-71
2023/09/11 09:53:04;;;;;;;;;;;;;;;;;;5068506;28;19929;-71
2023/09/11 09:55:31;;;;;;;;;;;;;;;;;;5073017;28;20333;-71
2023/09/11 09:57:58;;;;;;;;;;;;;;;;;;5071432;28;20307;-71
2023/09/11 10:00:25;;;;;;;;;;;;;;;;;;5071809;28;19928;-71
2023/09/11 10:02:52;;;;;;;;;;;;;;;;;;5072276;28;19928;-71
2023/09/11 10:05:19;;;;;;;;;;;;;;;;;;5072236;28;19986;-71
2023/09/11 10:07:46;;;;;;;;;;;;;;;;;;5072614;28;19925;-71
2023/09/11 10:10:13;;;;;;;;;;;;;;;;;;5053212;28;20027;-71
2023/09/11 10:12:40;;;;;;;;;;;;;;;;;;5070681;28;20355;-71
2023/09/11 10:15:07;;;;;;;;;;;;;;;;;;5073378;28;19990;-71
2023/09/11 10:17:35;;;;;;;;;;;;;;;;;;5071866;28;20247;-71
2023/09/11 10:20:02;;;;;;;;;;;;;;;;;;5069336;28;20355;-73
2023/09/11 10:22:29;;;;;;;;;;;;;;;;;;5071860;28;19924;-73
2023/09/11 10:24:56;;;;;;;;;;;;;;;;;;5066206;28;19925;-72
2023/09/11 10:27:23;;;;;;;;;;;;;;;;;;5070537;28;19925;-72
2023/09/11 10:29:50;;;;;;;;;;;;;;;;;;5070968;28;19925;-72
2023/09/11 10:32:17;;;;;;;;;;;;;;;;;;5072917;28;19928;-72
2023/09/11 10:34:44;;;;;;;;;;;;;;;;;;5069036;28;19924;-73
2023/09/11 10:37:11;;;;;;;;;;;;;;;;;;5072818;28;19970;-74
2023/09/11 10:39:38;;;;;;;;;;;;;;;;;;5072774;28;19985;-73
2023/09/11 10:42:05;;;;;;;;;;;;;;;;;;5070248;28;19971;-73
2023/09/11 10:44:32;;;;;;;;;;;;;;;;;;5071575;28;20303;-72
2023/09/11 10:46:59;;;;;;;;;;;;;;;;;;5071409;28;19924;-72
2023/09/11 10:49:27;;;;;;;;;;;;;;;;;;5070471;28;19925;-72
2023/09/11 10:51:55;;;;;;;;;;;;;;;;;;5067738;28;20433;-68
2023/09/11 10:54:22;;;;;;;;;;;;;;;;;;5070290;28;19928;-73
2023/09/11 10:56:49;;;;;;;;;;;;;;;;;;5067746;28;20371;-73
2023/09/11 10:59:16;;;;;;;;;;;;;;;;;;5069744;28;19970;-72
2023/09/11 11:01:43;;;;;;;;;;;;;;;;;;5061415;28;19924;-71
2023/09/11 11:04:10;;;;;;;;;;;;;;;;;;5071376;28;20406;-77
2023/09/11 11:06:37;;;;;;;;;;;;;;;;;;5070274;28;19929;-74
2023/09/11 11:09:04;;;;;;;;;;;;;;;;;;5070029;28;19978;-75
2023/09/11 11:11:31;;;;;;;;;;;;;;;;;;5070324;28;19924;-75
2023/09/11 11:13:57;;;;;;;;;;;;;;;;;;5072574;28;19925;-76
2023/09/11 11:16:25;;;;;;;;;;;;;;;;;;5061019;28;19925;-75
2023/09/11 11:18:52;;;;;;;;;;;;;;;;;;5071821;28;20351;-75
2023/09/11 11:21:19;;;;;;;;;;;;;;;;;;5072336;28;19924;-74
2023/09/11 11:23:46;;;;;;;;;;;;;;;;;;5071241;28;19968;-75
2023/09/11 11:26:13;;;;;;;;;;;;;;;;;;5069326;28;20010;-75
2023/09/11 11:28:40;;;;;;;;;;;;;;;;;;5067999;28;19924;-75
2023/09/11 11:31:07;;;;;;;;;;;;;;;;;;5071533;28;19925;-75
2023/09/11 11:33:34;;;;;;;;;;;;;;;;;;5070478;28;19931;-74
2023/09/11 11:36:01;;;;;;;;;;;;;;;;;;5070594;28;19931;-75
2023/09/11 11:38:28;;;;;;;;;;;;;;;;;;5070837;28;19989;-75
2023/09/11 11:40:55;;;;;;;;;;;;;;;;;;5068718;28;19924;-75
2023/09/11 11:43:22;;;;;;;;;;;;;;;;;;5069423;28;19924;-75
2023/09/11 11:45:49;;;;;;;;;;;;;;;;;;5071138;28;19925;-75
2023/09/11 11:48:17;;;;;;;;;;;;;;;;;;5071817;28;19924;-75
2023/09/11 11:50:44;;;;;;;;;;;;;;;;;;5072075;28;19925;-75
2023/09/11 11:53:11;;;;;;;;;;;;;;;;;;5075722;28;19924;-74
2023/09/11 11:55:38;;;;;;;;;;;;;;;;;;5075761;28;19928;-74
2023/09/11 11:58:08;;;;;;;;;;;;;;;;;;5076113;28;20346;-75
2023/09/11 12:00:36;;;;;;;;;;;;;;;;;;5073246;28;19931;-73
2023/09/11 12:03:03;;;;;;;;;;;;;;;;;;5059118;28;19943;-74
2023/09/11 12:05:30;;;;;;;;;;;;;;;;;;5074570;28;20272;-72
2023/09/11 12:07:57;;;;;;;;;;;;;;;;;;5074401;28;20151;-72
2023/09/11 12:10:24;;;;;;;;;;;;;;;;;;5074408;28;20298;-72
2023/09/11 12:12:51;;;;;;;;;;;;;;;;;;5074307;28;20433;-72
2023/09/11 12:15:18;;;;;;;;;;;;;;;;;;5074954;28;19928;-72
2023/09/11 12:17:45;;;;;;;;;;;;;;;;;;5072237;28;20017;-71
2023/09/11 12:20:12;;;;;;;;;;;;;;;;;;5074270;28;20341;-72
2023/09/11 12:22:39;;;;;;;;;;;;;;;;;;5074625;28;19924;-71
2023/09/11 12:25:06;;;;;;;;;;;;;;;;;;5072523;28;19932;-71
2023/09/11 12:27:33;;;;;;;;;;;;;;;;;;5073126;28;19928;-71
2023/09/11 12:30:00;;;;;;;;;;;;;;;;;;5074504;28;19962;-71
2023/09/11 12:32:27;;;;;;;;;;;;;;;;;;5074524;28;19925;-71
2023/09/11 12:34:54;;;;;;;;;;;;;;;;;;5073838;28;19977;-72
2023/09/11 12:37:21;;;;;;;;;;;;;;;;;;5073974;28;19978;-71
2023/09/11 12:39:48;;;;;;;;;;;;;;;;;;5075047;28;19970;-71
2023/09/11 12:42:15;;;;;;;;;;;;;;;;;;5074091;28;19925;-71
2023/09/11 12:44:42;;;;;;;;;;;;;;;;;;5074579;28;20399;-71
2023/09/11 12:47:09;;;;;;;;;;;;;;;;;;5068358;28;19932;-72
2023/09/11 12:49:36;;;;;;;;;;;;;;;;;;5074836;28;20376;-72
2023/09/11 12:52:03;;;;;;;;;;;;;;;;;;5070662;28;20376;-71
2023/09/11 12:54:31;;;;;;;;;;;;;;;;;;5055329;28;19928;-72
2023/09/11 12:56:59;;;;;;;;;;;;;;;;;;5064590;28;19924;-71
2023/09/11 12:59:26;;;;;;;;;;;;;;;;;;5071362;28;20384;-71
2023/09/11 13:01:53;;;;;;;;;;;;;;;;;;5072308;28;19940;-71
2023/09/11 13:04:20;;;;;;;;;;;;;;;;;;5073395;28;19925;-70
2023/09/11 13:06:47;;;;;;;;;;;;;;;;;;5069341;28;19925;-70
2023/09/11 13:09:14;;;;;;;;;;;;;;;;;;5065732;28;20000;-69
2023/09/11 13:11:41;;;;;;;;;;;;;;;;;;5069557;28;19932;-70
2023/09/11 13:14:08;;;;;;;;;;;;;;;;;;5073005;28;19924;-70
2023/09/11 13:16:35;;;;;;;;;;;;;;;;;;5058131;28;19924;-70
2023/09/11 13:19:02;;;;;;;;;;;;;;;;;;5067754;28;20413;-70
2023/09/11 13:21:29;;;;;;;;;;;;;;;;;;5073431;28;19928;-70
2023/09/11 13:23:57;;;;;;;;;;;;;;;;;;5072672;28;20351;-71
2023/09/11 13:26:24;;;;;;;;;;;;;;;;;;5071992;28;20334;-71
2023/09/11 13:28:51;;;;;;;;;;;;;;;;;;5070964;28;19924;-71
2023/09/11 13:31:18;;;;;;;;;;;;;;;;;;5073689;28;19924;-71
2023/09/11 13:33:45;;;;;;;;;;;;;;;;;;5073085;28;19978;-70
2023/09/11 13:36:12;;;;;;;;;;;;;;;;;;5073695;28;19970;-70
2023/09/11 13:38:39;;;;;;;;;;;;;;;;;;5072294;28;19924;-71
2023/09/11 13:41:06;;;;;;;;;;;;;;;;;;5071803;28;20349;-70
2023/09/11 13:43:33;;;;;;;;;;;;;;;;;;5072839;28;19925;-70
2023/09/11 13:46:00;;;;;;;;;;;;;;;;;;5073137;28;20438;-71
2023/09/11 13:48:27;;;;;;;;;;;;;;;;;;5060017;28;19986;-70
2023/09/11 13:50:54;;;;;;;;;;;;;;;;;;5072403;28;19924;-70
2023/09/11 13:53:21;;;;;;;;;;;;;;;;;;5072579;28;19924;-70
2023/09/11 13:55:48;;;;;;;;;;;;;;;;;;5072339;28;19924;-70
2023/09/11 13:58:15;;;;;;;;;;;;;;;;;;5072719;28;19947;-71
2023/09/11 14:00:42;;;;;;;;;;;;;;;;;;5070985;28;19930;-71
2023/09/11 14:03:09;;;;;;;;;;;;;;;;;;5071115;28;20697;-70
2023/09/11 14:05:36;;;;;;;;;;;;;;;;;;5072079;28;19924;-72
2023/09/11 14:08:03;;;;;;;;;;;;;;;;;;5071707;28;20384;-70
2023/09/11 14:10:30;;;;;;;;;;;;;;;;;;5068301;28;19988;-73
2023/09/11 14:12:58;;;;;;;;;;;;;;;;;;5071969;28;19932;-70
2023/09/11 14:15:25;;;;;;;;;;;;;;;;;;5070590;28;19928;-70
2023/09/11 14:17:52;;;;;;;;;;;;;;;;;;5070909;28;19928;-72
2023/09/11 14:20:19;;;;;;;;;;;;;;;;;;5069432;28;19925;-73
2023/09/11 14:22:46;;;;;;;;;;;;;;;;;;5069214;28;20272;-71
2023/09/11 14:25:13;;;;;;;;;;;;;;;;;;5071675;28;19924;-72
2023/09/11 14:27:40;;;;;;;;;;;;;;;;;;5068494;28;19976;-72
2023/09/11 14:30:07;;;;;;;;;;;;;;;;;;5069146;28;20318;-71
2023/09/11 14:32:34;;;;;;;;;;;;;;;;;;5066275;28;19994;-72
2023/09/11 14:35:01;;;;;;;;;;;;;;;;;;5066617;28;20390;-72
2023/09/11 14:37:28;;;;;;;;;;;;;;;;;;5067967;28;20221;-72
2023/09/11 14:39:55;;;;;;;;;;;;;;;;;;5067496;28;20379;-71
2023/09/11 14:42:22;;;;;;;;;;;;;;;;;;5065993;28;19939;-72
2023/09/11 14:44:50;;;;;;;;;;;;;;;;;;5069712;28;19925;-72
2023/09/11 14:47:17;;;;;;;;;;;;;;;;;;5067884;28;20403;-71
2023/09/11 14:49:46;;;;;;;;;;;;;;;;;;5070924;28;19924;-71
2023/09/11 14:52:13;;;;;;;;;;;;;;;;;;5062493;28;20011;-72
2023/09/11 14:54:40;;;;;;;;;;;;;;;;;;5057108;28;19946;-72
2023/09/11 14:57:10;;;;;;;;;;;;;;;;;;5066188;28;20002;-72
2023/09/11 14:59:37;;;;;;;;;;;;;;;;;;5072023;28;19931;-71
2023/09/11 15:02:04;;;;;;;;;;;;;;;;;;5066074;28;19978;-72
2023/09/11 15:04:31;;;;;;;;;;;;;;;;;;5068534;28;19928;-72
2023/09/11 15:07:01;;;;;;;;;;;;;;;;;;5080605;22;19940;-72
2023/09/11 15:09:37;;;;;;;;;;;;;;;;;;5088773;28;19928;-72
2023/09/11 15:12:06;;;;;;;;;;;;;;;;;;5085449;28;19924;-73
2023/09/11 15:14:34;;;;;;;;;;;;;;;;;;5073968;28;19945;-68
2023/09/11 15:17:01;;;;;;;;;;;;;;;;;;5092048;28;19971;-69
2023/09/11 15:19:28;;;;;;;;;;;;;;;;;;5090118;28;19969;-69
2023/09/11 15:21:55;;;;;;;;;;;;;;;;;;5089030;28;20005;-70
2023/09/11 15:24:24;;;;;;;;;;;;;;;;;;5091061;28;19963;-71
2023/09/11 15:26:51;;;;;;;;;;;;;;;;;;5090114;28;19928;-70
2023/09/11 15:29:18;;;;;;;;;;;;;;;;;;5091345;28;19928;-70
2023/09/11 15:31:45;;;;;;;;;;;;;;;;;;5091134;28;20017;-70
2023/09/11 15:34:14;;;;;;;;;;;;;;;;;;5090950;28;19928;-70
2023/09/11 15:36:41;;;;;;;;;;;;;;;;;;5082269;28;19931;-71
2023/09/11 15:39:08;;;;;;;;;;;;;;;;;;5086518;28;19966;-69
2023/09/11 15:41:35;;;;;;;;;;;;;;;;;;5085454;28;19927;-69
2023/09/11 15:44:02;;;;;;;;;;;;;;;;;;5088833;28;19924;-70
2023/09/11 15:46:29;;;;;;;;;;;;;;;;;;5090845;28;19924;-70
2023/09/11 15:48:56;;;;;;;;;;;;;;;;;;5074904;28;20633;-70
2023/09/11 15:51:23;;;;;;;;;;;;;;;;;;5088396;28;19924;-69
2023/09/11 15:53:50;;;;;;;;;;;;;;;;;;5079484;28;19932;-69
2023/09/11 15:56:17;;;;;;;;;;;;;;;;;;5087839;28;20439;-69
2023/09/11 15:58:45;;;;;;;;;;;;;;;;;;5090629;28;19977;-70
2023/09/11 16:01:12;;;;;;;;;;;;;;;;;;5087843;28;19994;-70
2023/09/11 16:03:39;;;;;;;;;;;;;;;;;;5087733;28;19924;-69
2023/09/11 16:06:06;;;;;;;;;;;;;;;;;;5083830;28;19977;-69
2023/09/11 16:08:33;;;;;;;;;;;;;;;;;;5084483;28;20019;-70
2023/09/11 16:11:00;;;;;;;;;;;;;;;;;;5088250;28;19928;-70
2023/09/11 16:13:27;;;;;;;;;;;;;;;;;;5084353;28;20283;-70
2023/09/11 16:15:54;;;;;;;;;;;;;;;;;;5084974;28;19967;-68
2023/09/11 16:18:23;;;;;;;;;;;;;;;;;;5090330;28;20452;-70
2023/09/11 16:20:50;;;;;;;;;;;;;;;;;;5076038;28;19947;-69
2023/09/11 16:23:18;;;;;;;;;;;;;;;;;;5090758;28;19928;-70
2023/09/11 16:25:45;;;;;;;;;;;;;;;;;;5091980;28;19924;-70
2023/09/11 16:28:12;;;;;;;;;;;;;;;;;;5090612;28;20355;-70
2023/09/11 16:30:39;;;;;;;;;;;;;;;;;;5089486;28;19969;-70
2023/09/11 16:33:06;;;;;;;;;;;;;;;;;;5084500;28;19928;-70
2023/09/11 16:35:33;;;;;;;;;;;;;;;;;;5087377;28;19924;-70
2023/09/11 16:38:00;;;;;;;;;;;;;;;;;;5080172;28;19925;-71
2023/09/11 16:40:27;;;;;;;;;;;;;;;;;;5090594;28;19928;-70
2023/09/11 16:42:55;;;;;;;;;;;;;;;;;;5091614;28;19924;-70
2023/09/11 16:45:22;;;;;;;;;;;;;;;;;;5086597;28;20394;-69